sensor_id;sensor_type;location;lat;lon;timestamp;pressure;altitude;pressure_sealevel;temperature;humidity
16580;BME280;8402;51.466;6.806;2023-12-28T00:01:25;100751.63;;;10.03;100.00
16580;BME280;8402;51.466;6.806;2023-12-28T00:03:55;100743.97;;;10.05;100.00
16580;BME280;8402;51.466;6.806;2023-12-28T00:06:25;100735.72;;;10.10;100.00
16580;BME280;8402;51.466;6.806;2023-12-28T00:08:58;100752.16;;;10.13;100.00
16580;BME280;8402;51.466;6.806;2023-12-28T00:11:37;100748.66;;;10.13;100.00
16580;BME280;8402;51.466;6.806;2023-12-28T00:14:07;100759.38;;;10.18;100.00
16580;BME280;8402;51.466;6.806;2023-12-28T00:16:37;100761.44;;;10.21;100.00
16580;BME280;8402;51.466;6.806;2023-12-28T00:19:07;100772.03;;;10.23;100.00
16580;BME280;8402;51.466;6.806;2023-12-28T00:21:37;100768.22;;;10.24;100.00
16580;BME280;8402;51.466;6.806;2023-12-28T00:24:09;100765.19;;;10.25;100.00
16580;BME280;8402;51.466;6.806;2023-12-28T00:26:39;100763.75;;;10.28;100.00
16580;BME280;8402;51.466;6.806;2023-12-28T00:29:09;100759.97;;;10.29;100.00
16580;BME280;8402;51.466;6.806;2023-12-28T00:31:39;100763.75;;;10.28;100.00
16580;BME280;8402;51.466;6.806;2023-12-28T00:34:09;100757.72;;;10.31;100.00
16580;BME280;8402;51.466;6.806;2023-12-28T00:36:41;100763.16;;;10.31;100.00
16580;BME280;8402;51.466;6.806;2023-12-28T00:39:14;100765.53;;;10.32;100.00
16580;BME280;8402;51.466;6.806;2023-12-28T00:41:44;100770.03;;;10.37;100.00
16580;BME280;8402;51.466;6.806;2023-12-28T00:44:14;100772.13;;;10.40;100.00
16580;BME280;8402;51.466;6.806;2023-12-28T00:46:46;100766.38;;;10.41;100.00
16580;BME280;8402;51.466;6.806;2023-12-28T00:49:16;100777.41;;;10.45;100.00
16580;BME280;8402;51.466;6.806;2023-12-28T00:51:46;100774.38;;;10.46;100.00
16580;BME280;8402;51.466;6.806;2023-12-28T00:54:19;100777.91;;;10.47;100.00
16580;BME280;8402;51.466;6.806;2023-12-28T00:56:49;100766.88;;;10.43;100.00
16580;BME280;8402;51.466;6.806;2023-12-28T00:59:18;100769.75;;;10.47;100.00
16580;BME280;8402;51.466;6.806;2023-12-28T01:01:48;100773.28;;;10.47;100.00
16580;BME280;8402;51.466;6.806;2023-12-28T01:04:18;100768.66;;;10.48;100.00
16580;BME280;8402;51.466;6.806;2023-12-28T01:06:50;100767.53;;;10.49;100.00
16580;BME280;8402;51.466;6.806;2023-12-28T01:09:22;100781.09;;;10.49;100.00
16580;BME280;8402;51.466;6.806;2023-12-28T01:11:52;100782.69;;;10.50;100.00
16580;BME280;8402;51.466;6.806;2023-12-28T01:14:22;100774.88;;;10.48;100.00
16580;BME280;8402;51.466;6.806;2023-12-28T01:16:52;100783.31;;;10.47;100.00
16580;BME280;8402;51.466;6.806;2023-12-28T01:19:22;100792.13;;;10.53;100.00
16580;BME280;8402;51.466;6.806;2023-12-28T01:21:53;100779.97;;;10.50;100.00
16580;BME280;8402;51.466;6.806;2023-12-28T01:24:25;100796.75;;;10.52;100.00
16580;BME280;8402;51.466;6.806;2023-12-28T01:26:55;100799.31;;;10.57;100.00
16580;BME280;8402;51.466;6.806;2023-12-28T01:29:25;100799.50;;;10.61;100.00
16580;BME280;8402;51.466;6.806;2023-12-28T01:31:55;100798.72;;;10.60;100.00
16580;BME280;8402;51.466;6.806;2023-12-28T01:34:25;100801.44;;;10.60;100.00
16580;BME280;8402;51.466;6.806;2023-12-28T01:36:55;100801.91;;;10.62;100.00
16580;BME280;8402;51.466;6.806;2023-12-28T01:39:29;100807.97;;;10.59;100.00
16580;BME280;8402;51.466;6.806;2023-12-28T01:41:59;100804.94;;;10.61;100.00
16580;BME280;8402;51.466;6.806;2023-12-28T01:44:30;100800.94;;;10.58;100.00
16580;BME280;8402;51.466;6.806;2023-12-28T01:47:00;100810.16;;;10.57;100.00
16580;BME280;8402;51.466;6.806;2023-12-28T01:49:30;100820.88;;;10.54;100.00
16580;BME280;8402;51.466;6.806;2023-12-28T01:52:01;100813.41;;;10.59;100.00
16580;BME280;8402;51.466;6.806;2023-12-28T01:54:35;100818.03;;;10.59;100.00
16580;BME280;8402;51.466;6.806;2023-12-28T01:57:07;100811.81;;;10.58;100.00
16580;BME280;8402;51.466;6.806;2023-12-28T01:59:37;100820.06;;;10.53;100.00
16580;BME280;8402;51.466;6.806;2023-12-28T02:02:08;100819.44;;;10.56;100.00
16580;BME280;8402;51.466;6.806;2023-12-28T02:04:38;100835.72;;;10.56;100.00
16580;BME280;8402;51.466;6.806;2023-12-28T02:07:08;100830.28;;;10.56;100.00
16580;BME280;8402;51.466;6.806;2023-12-28T02:09:41;100839.91;;;10.62;100.00
16580;BME280;8402;51.466;6.806;2023-12-28T02:12:11;100838.78;;;10.63;100.00
16580;BME280;8402;51.466;6.806;2023-12-28T02:14:41;100838.66;;;10.68;100.00
16580;BME280;8402;51.466;6.806;2023-12-28T02:17:17;100843.28;;;10.68;100.00
16580;BME280;8402;51.466;6.806;2023-12-28T02:19:51;100838.66;;;10.68;100.00
16580;BME280;8402;51.466;6.806;2023-12-28T02:22:24;100838.50;;;10.65;100.00
16580;BME280;8402;51.466;6.806;2023-12-28T02:25:05;100846.31;;;10.66;100.00
16580;BME280;8402;51.466;6.806;2023-12-28T02:27:38;100831.94;;;10.66;100.00
16580;BME280;8402;51.466;6.806;2023-12-28T02:30:10;100835.47;;;10.66;100.00
16580;BME280;8402;51.466;6.806;2023-12-28T02:32:47;100831.63;;;10.67;100.00
16580;BME280;8402;51.466;6.806;2023-12-28T02:35:24;100836.56;;;10.65;100.00
16580;BME280;8402;51.466;6.806;2023-12-28T02:37:59;100833.66;;;10.62;100.00
16580;BME280;8402;51.466;6.806;2023-12-28T02:40:37;100838.66;;;10.68;100.00
16580;BME280;8402;51.466;6.806;2023-12-28T02:43:08;100836.41;;;10.70;100.00
16580;BME280;8402;51.466;6.806;2023-12-28T02:45:38;100829.41;;;10.69;100.00
16580;BME280;8402;51.466;6.806;2023-12-28T02:48:09;100831.00;;;10.70;100.00
16580;BME280;8402;51.466;6.806;2023-12-28T02:50:39;100832.59;;;10.71;100.00
16580;BME280;8402;51.466;6.806;2023-12-28T02:53:09;100830.38;;;10.73;100.00
16580;BME280;8402;51.466;6.806;2023-12-28T02:55:42;100827.03;;;10.77;100.00
16580;BME280;8402;51.466;6.806;2023-12-28T02:58:12;100825.63;;;10.79;100.00
16580;BME280;8402;51.466;6.806;2023-12-28T03:00:45;100827.50;;;10.79;100.00
16580;BME280;8402;51.466;6.806;2023-12-28T03:03:16;100826.91;;;10.82;100.00
16580;BME280;8402;51.466;6.806;2023-12-28T03:05:46;100822.91;;;10.79;100.00
16580;BME280;8402;51.466;6.806;2023-12-28T03:08:16;100812.06;;;10.79;100.00
16580;BME280;8402;51.466;6.806;2023-12-28T03:10:49;100821.28;;;10.78;100.00
16580;BME280;8402;51.466;6.806;2023-12-28T03:13:19;100833.91;;;10.74;100.00
16580;BME280;8402;51.466;6.806;2023-12-28T03:15:50;100824.81;;;10.79;100.00
16580;BME280;8402;51.466;6.806;2023-12-28T03:18:20;100812.84;;;10.80;100.00
16580;BME280;8402;51.466;6.806;2023-12-28T03:20:50;100816.03;;;10.82;100.00
16580;BME280;8402;51.466;6.806;2023-12-28T03:23:20;100819.88;;;10.81;100.00
16580;BME280;8402;51.466;6.806;2023-12-28T03:25:53;100819.88;;;10.81;100.00
16580;BME280;8402;51.466;6.806;2023-12-28T03:28:23;100803.59;;;10.81;100.00
16580;BME280;8402;51.466;6.806;2023-12-28T03:30:53;100808.84;;;10.77;100.00
16580;BME280;8402;51.466;6.806;2023-12-28T03:33:24;100812.66;;;10.76;100.00
16580;BME280;8402;51.466;6.806;2023-12-28T03:35:56;100814.44;;;10.81;100.00
16580;BME280;8402;51.466;6.806;2023-12-28T03:38:27;100804.88;;;10.83;100.00
16580;BME280;8402;51.466;6.806;2023-12-28T03:41:00;100815.41;;;10.85;100.00
16580;BME280;8402;51.466;6.806;2023-12-28T03:43:30;100813.19;;;10.87;100.00
16580;BME280;8402;51.466;6.806;2023-12-28T03:46:00;100795.00;;;10.87;100.00
16580;BME280;8402;51.466;6.806;2023-12-28T03:48:31;100814.00;;;10.87;100.00
16580;BME280;8402;51.466;6.806;2023-12-28T03:51:02;100806.16;;;10.86;100.00
16580;BME280;8402;51.466;6.806;2023-12-28T03:53:33;100821.34;;;10.87;100.00
16580;BME280;8402;51.466;6.806;2023-12-28T03:56:18;100820.84;;;10.85;100.00
16580;BME280;8402;51.466;6.806;2023-12-28T03:58:48;100815.13;;;10.86;100.00
16580;BME280;8402;51.466;6.806;2023-12-28T04:01:18;100813.50;;;10.85;100.00
16580;BME280;8402;51.466;6.806;2023-12-28T04:03:49;100802.94;;;10.84;100.00
16580;BME280;8402;51.466;6.806;2023-12-28T04:06:19;100803.44;;;10.86;100.00
16580;BME280;8402;51.466;6.806;2023-12-28T04:08:49;100817.66;;;10.83;100.00
16580;BME280;8402;51.466;6.806;2023-12-28T04:11:22;100813.34;;;10.82;100.00
16580;BME280;8402;51.466;6.806;2023-12-28T04:13:52;100805.00;;;10.78;100.00
16580;BME280;8402;51.466;6.806;2023-12-28T04:16:22;100810.63;;;10.82;100.00
16580;BME280;8402;51.466;6.806;2023-12-28T04:18:52;100806.78;;;10.83;100.00
16580;BME280;8402;51.466;6.806;2023-12-28T04:21:22;100810.28;;;10.83;100.00
16580;BME280;8402;51.466;6.806;2023-12-28T04:23:52;100820.84;;;10.85;100.00
16580;BME280;8402;51.466;6.806;2023-12-28T04:26:24;100818.00;;;10.90;100.00
16580;BME280;8402;51.466;6.806;2023-12-28T04:28:54;100823.41;;;10.90;100.00
16580;BME280;8402;51.466;6.806;2023-12-28T04:31:24;100809.22;;;10.93;100.00
16580;BME280;8402;51.466;6.806;2023-12-28T04:33:54;100814.63;;;10.93;100.00
16580;BME280;8402;51.466;6.806;2023-12-28T04:36:24;100814.16;;;10.91;100.00
16580;BME280;8402;51.466;6.806;2023-12-28T04:38:54;100832.03;;;10.92;100.00
16580;BME280;8402;51.466;6.806;2023-12-28T04:41:27;100825.00;;;10.91;100.00
16580;BME280;8402;51.466;6.806;2023-12-28T04:43:58;100817.66;;;10.91;100.00
16580;BME280;8402;51.466;6.806;2023-12-28T04:46:31;100811.91;;;10.93;100.00
16580;BME280;8402;51.466;6.806;2023-12-28T04:49:03;100809.38;;;10.88;100.00
16580;BME280;8402;51.466;6.806;2023-12-28T04:51:33;100811.13;;;10.92;100.00
16580;BME280;8402;51.466;6.806;2023-12-28T04:54:02;100820.06;;;10.93;100.00
16580;BME280;8402;51.466;6.806;2023-12-28T04:56:35;100808.41;;;10.92;100.00
16580;BME280;8402;51.466;6.806;2023-12-28T04:59:05;100815.75;;;10.92;100.00
16580;BME280;8402;51.466;6.806;2023-12-28T05:01:40;100814.16;;;10.91;100.00
16580;BME280;8402;51.466;6.806;2023-12-28T05:04:10;100814.78;;;10.88;100.00
16580;BME280;8402;51.466;6.806;2023-12-28T05:06:43;100822.78;;;10.93;100.00
16580;BME280;8402;51.466;6.806;2023-12-28T05:09:13;100824.22;;;10.90;100.00
16580;BME280;8402;51.466;6.806;2023-12-28T05:11:46;100832.19;;;10.87;100.00
16580;BME280;8402;51.466;6.806;2023-12-28T05:14:16;100824.41;;;10.94;100.00
16580;BME280;8402;51.466;6.806;2023-12-28T05:16:55;100823.75;;;10.97;100.00
16580;BME280;8402;51.466;6.806;2023-12-28T05:19:25;100838.63;;;10.99;100.00
16580;BME280;8402;51.466;6.806;2023-12-28T05:21:58;100840.53;;;10.99;100.00
16580;BME280;8402;51.466;6.806;2023-12-28T05:24:36;100847.28;;;11.01;100.00
16580;BME280;8402;51.466;6.806;2023-12-28T05:27:09;100843.88;;;10.96;100.00
16580;BME280;8402;51.466;6.806;2023-12-28T05:29:39;100846.47;;;11.01;100.00
16580;BME280;8402;51.466;6.806;2023-12-28T05:32:09;100843.44;;;11.02;100.00
16580;BME280;8402;51.466;6.806;2023-12-28T05:34:39;100851.09;;;11.00;100.00
16580;BME280;8402;51.466;6.806;2023-12-28T05:37:09;100851.91;;;11.01;100.00
16580;BME280;8402;51.466;6.806;2023-12-28T05:39:39;100848.06;;;11.02;100.00
16580;BME280;8402;51.466;6.806;2023-12-28T05:42:11;100837.53;;;11.00;100.00
16580;BME280;8402;51.466;6.806;2023-12-28T05:44:41;100854.28;;;11.02;100.00
16580;BME280;8402;51.466;6.806;2023-12-28T05:47:11;100849.66;;;11.03;100.00
16580;BME280;8402;51.466;6.806;2023-12-28T05:49:41;100857.81;;;11.03;100.00
16580;BME280;8402;51.466;6.806;2023-12-28T05:52:11;100861.31;;;11.03;100.00
16580;BME280;8402;51.466;6.806;2023-12-28T05:54:45;100871.06;;;11.05;100.00
16580;BME280;8402;51.466;6.806;2023-12-28T05:57:21;100863.72;;;11.05;100.00
16580;BME280;8402;51.466;6.806;2023-12-28T05:59:53;100866.31;;;11.10;100.00
16580;BME280;8402;51.466;6.806;2023-12-28T06:02:23;100878.75;;;11.11;100.00
16580;BME280;8402;51.466;6.806;2023-12-28T06:04:53;100874.94;;;11.12;100.00
16580;BME280;8402;51.466;6.806;2023-12-28T06:07:23;100873.31;;;11.11;100.00
16580;BME280;8402;51.466;6.806;2023-12-28T06:09:53;100888.03;;;11.10;100.00
16580;BME280;8402;51.466;6.806;2023-12-28T06:12:25;100877.16;;;11.10;100.00
16580;BME280;8402;51.466;6.806;2023-12-28T06:14:55;100875.72;;;11.13;100.00
16580;BME280;8402;51.466;6.806;2023-12-28T06:17:26;100874.94;;;11.12;100.00
16580;BME280;8402;51.466;6.806;2023-12-28T06:20:00;100851.59;;;11.11;100.00
16580;BME280;8402;51.466;6.806;2023-12-28T06:22:30;100862.47;;;11.11;100.00
16580;BME280;8402;51.466;6.806;2023-12-28T06:25:01;100872.53;;;11.11;100.00
16580;BME280;8402;51.466;6.806;2023-12-28T06:27:34;100866.44;;;11.05;100.00
16580;BME280;8402;51.466;6.806;2023-12-28T06:30:05;100870.94;;;11.10;100.00
16580;BME280;8402;51.466;6.806;2023-12-28T06:32:35;100881.00;;;11.09;100.00
16580;BME280;8402;51.466;6.806;2023-12-28T06:35:06;100882.41;;;11.07;100.00
16580;BME280;8402;51.466;6.806;2023-12-28T06:37:36;100870.75;;;11.06;100.00
16580;BME280;8402;51.466;6.806;2023-12-28T06:40:08;100871.25;;;11.08;100.00
16580;BME280;8402;51.466;6.806;2023-12-28T06:42:40;100863.09;;;11.08;100.00
16580;BME280;8402;51.466;6.806;2023-12-28T06:45:13;100862.13;;;11.04;100.00
16580;BME280;8402;51.466;6.806;2023-12-28T06:47:45;100866.78;;;11.12;100.00
16580;BME280;8402;51.466;6.806;2023-12-28T06:50:15;100864.06;;;11.12;100.00
16580;BME280;8402;51.466;6.806;2023-12-28T06:52:50;100875.25;;;11.11;100.00
16580;BME280;8402;51.466;6.806;2023-12-28T06:55:19;100880.84;;;11.14;100.00
16580;BME280;8402;51.466;6.806;2023-12-28T06:57:52;100884.19;;;11.11;100.00
16580;BME280;8402;51.466;6.806;2023-12-28T07:00:22;100874.94;;;11.12;100.00
16580;BME280;8402;51.466;6.806;2023-12-28T07:02:52;100880.34;;;11.12;100.00
16580;BME280;8402;51.466;6.806;2023-12-28T07:05:22;100878.75;;;11.11;100.00
16580;BME280;8402;51.466;6.806;2023-12-28T07:07:52;100878.59;;;11.08;100.00
16580;BME280;8402;51.466;6.806;2023-12-28T07:10:23;100866.91;;;11.07;100.00
16580;BME280;8402;51.466;6.806;2023-12-28T07:12:55;100879.88;;;11.10;100.00
16580;BME280;8402;51.466;6.806;2023-12-28T07:15:26;100884.19;;;11.11;100.00
16580;BME280;8402;51.466;6.806;2023-12-28T07:17:56;100881.94;;;11.13;100.00
16580;BME280;8402;51.466;6.806;2023-12-28T07:20:27;100873.81;;;11.13;100.00
16580;BME280;8402;51.466;6.806;2023-12-28T07:23:08;100884.19;;;11.11;100.00
16580;BME280;8402;51.466;6.806;2023-12-28T07:25:49;100884.38;;;11.15;100.00
16580;BME280;8402;51.466;6.806;2023-12-28T07:28:22;100888.38;;;11.17;100.00
16580;BME280;8402;51.466;6.806;2023-12-28T07:30:53;100891.25;;;11.21;100.00
16580;BME280;8402;51.466;6.806;2023-12-28T07:33:24;100887.13;;;11.23;100.00
16580;BME280;8402;51.466;6.806;2023-12-28T07:35:54;100893.03;;;11.25;100.00
16580;BME280;8402;51.466;6.806;2023-12-28T07:38:26;100895.59;;;11.22;100.00
16580;BME280;8402;51.466;6.806;2023-12-28T07:40:56;100896.38;;;11.22;100.00
16580;BME280;8402;51.466;6.806;2023-12-28T07:43:31;100914.28;;;11.23;100.00
16580;BME280;8402;51.466;6.806;2023-12-28T07:46:05;100909.16;;;11.22;100.00
16580;BME280;8402;51.466;6.806;2023-12-28T07:48:38;100923.53;;;11.22;100.00
16580;BME280;8402;51.466;6.806;2023-12-28T07:51:08;100926.75;;;11.24;100.00
16580;BME280;8402;51.466;6.806;2023-12-28T07:53:38;100919.41;;;11.25;100.00
16580;BME280;8402;51.466;6.806;2023-12-28T07:56:08;100936.81;;;11.24;100.00
16580;BME280;8402;51.466;6.806;2023-12-28T07:58:41;100937.59;;;11.24;100.00
16580;BME280;8402;51.466;6.806;2023-12-28T08:01:14;100938.41;;;11.25;100.00
16580;BME280;8402;51.466;6.806;2023-12-28T08:03:46;100938.41;;;11.25;100.00
16580;BME280;8402;51.466;6.806;2023-12-28T08:06:19;100948.16;;;11.26;100.00
16580;BME280;8402;51.466;6.806;2023-12-28T08:08:49;100947.84;;;11.27;100.00
16580;BME280;8402;51.466;6.806;2023-12-28T08:11:23;100939.22;;;11.25;100.00
16580;BME280;8402;51.466;6.806;2023-12-28T08:13:56;100942.91;;;11.29;100.00
16580;BME280;8402;51.466;6.806;2023-12-28T08:16:26;100946.59;;;11.34;100.00
16580;BME280;8402;51.466;6.806;2023-12-28T08:18:56;100942.75;;;11.35;100.00
16580;BME280;8402;51.466;6.806;2023-12-28T08:21:26;100943.88;;;11.34;100.00
16580;BME280;8402;51.466;6.806;2023-12-28T08:23:56;100947.06;;;11.36;100.00
16580;BME280;8402;51.466;6.806;2023-12-28T08:26:26;100953.00;;;11.38;100.00
16580;BME280;8402;51.466;6.806;2023-12-28T08:28:59;100956.03;;;11.36;100.00
16580;BME280;8402;51.466;6.806;2023-12-28T08:31:29;100954.59;;;11.39;100.00
16580;BME280;8402;51.466;6.806;2023-12-28T08:34:00;100960.50;;;11.41;100.00
16580;BME280;8402;51.466;6.806;2023-12-28T08:36:30;100958.13;;;11.39;100.00
16580;BME280;8402;51.466;6.806;2023-12-28T08:39:00;100973.31;;;11.40;100.00
16580;BME280;8402;51.466;6.806;2023-12-28T08:41:30;100978.41;;;11.42;100.00
16580;BME280;8402;51.466;6.806;2023-12-28T08:44:03;100978.13;;;11.43;100.00
16580;BME280;8402;51.466;6.806;2023-12-28T08:46:33;100977.28;;;11.43;100.00
16580;BME280;8402;51.466;6.806;2023-12-28T08:49:03;100968.06;;;11.44;100.00
16580;BME280;8402;51.466;6.806;2023-12-28T08:51:33;100976.69;;;11.46;100.00
16580;BME280;8402;51.466;6.806;2023-12-28T08:54:07;100975.09;;;11.45;100.00
16580;BME280;8402;51.466;6.806;2023-12-28T08:56:37;100985.16;;;11.44;100.00
16580;BME280;8402;51.466;6.806;2023-12-28T08:59:10;100989.16;;;11.47;100.00
16580;BME280;8402;51.466;6.806;2023-12-28T09:01:40;100988.50;;;11.50;100.00
16580;BME280;8402;51.466;6.806;2023-12-28T09:04:10;100993.81;;;11.55;100.00
16580;BME280;8402;51.466;6.806;2023-12-28T09:06:41;100985.84;;;11.58;100.00
16580;BME280;8402;51.466;6.806;2023-12-28T09:09:11;100992.88;;;11.60;100.00
16580;BME280;8402;51.466;6.806;2023-12-28T09:11:40;100998.94;;;11.56;100.00
16580;BME280;8402;51.466;6.806;2023-12-28T09:14:13;100996.72;;;11.58;100.00
16580;BME280;8402;51.466;6.806;2023-12-28T09:16:44;100994.00;;;11.58;100.00
16580;BME280;8402;51.466;6.806;2023-12-28T09:19:15;100996.72;;;11.58;100.00
16580;BME280;8402;51.466;6.806;2023-12-28T09:21:45;100986.16;;;11.57;100.00
16580;BME280;8402;51.466;6.806;2023-12-28T09:24:15;100985.06;;;11.58;100.00
16580;BME280;8402;51.466;6.806;2023-12-28T09:26:45;100994.81;;;11.59;100.00
16580;BME280;8402;51.466;6.806;2023-12-28T09:29:18;101010.00;;;11.60;100.00
16580;BME280;8402;51.466;6.806;2023-12-28T09:31:48;100998.00;;;11.61;100.00
16580;BME280;8402;51.466;6.806;2023-12-28T09:34:18;100991.44;;;11.62;100.00
16580;BME280;8402;51.466;6.806;2023-12-28T09:36:48;100992.25;;;11.63;100.00
16580;BME280;8402;51.466;6.806;2023-12-28T09:39:18;100992.44;;;11.66;100.00
16580;BME280;8402;51.466;6.806;2023-12-28T09:41:52;100998.66;;;11.67;100.00
16580;BME280;8402;51.466;6.806;2023-12-28T09:44:29;100990.50;;;11.67;100.00
16580;BME280;8402;51.466;6.806;2023-12-28T09:47:01;100991.31;;;11.67;100.00
16580;BME280;8402;51.466;6.806;2023-12-28T09:49:35;100990.66;;;11.70;100.00
16580;BME280;8402;51.466;6.806;2023-12-28T09:52:06;100995.00;;;11.71;100.00
16580;BME280;8402;51.466;6.806;2023-12-28T09:54:39;100981.09;;;11.73;100.00
16580;BME280;8402;51.466;6.806;2023-12-28T09:57:09;100989.88;;;11.78;100.00
16580;BME280;8402;51.466;6.806;2023-12-28T09:59:44;100994.25;;;11.79;100.00
16580;BME280;8402;51.466;6.806;2023-12-28T10:02:15;101002.56;;;11.83;100.00
16580;BME280;8402;51.466;6.806;2023-12-28T10:04:45;100993.31;;;11.84;100.00
16580;BME280;8402;51.466;6.806;2023-12-28T10:07:15;100990.91;;;11.82;100.00
16580;BME280;8402;51.466;6.806;2023-12-28T10:09:45;100992.50;;;11.83;100.00
16580;BME280;8402;51.466;6.806;2023-12-28T10:12:15;100994.91;;;11.85;100.00
16580;BME280;8402;51.466;6.806;2023-12-28T10:14:50;101002.25;;;11.84;100.00
16580;BME280;8402;51.466;6.806;2023-12-28T10:17:20;101004.34;;;11.88;100.00
16580;BME280;8402;51.466;6.806;2023-12-28T10:19:50;101001.31;;;11.89;100.00
16580;BME280;8402;51.466;6.806;2023-12-28T10:22:20;100993.47;;;11.88;100.00
16580;BME280;8402;51.466;6.806;2023-12-28T10:24:50;100994.59;;;11.87;100.00
16580;BME280;8402;51.466;6.806;2023-12-28T10:27:20;100987.72;;;11.89;100.00
16580;BME280;8402;51.466;6.806;2023-12-28T10:29:55;101001.66;;;11.88;100.00
16580;BME280;8402;51.466;6.806;2023-12-28T10:32:26;100987.53;;;11.85;100.00
16580;BME280;8402;51.466;6.806;2023-12-28T10:34:57;100992.38;;;11.89;100.00
16580;BME280;8402;51.466;6.806;2023-12-28T10:37:27;100989.00;;;11.92;100.00
16580;BME280;8402;51.466;6.806;2023-12-28T10:40:04;100993.81;;;11.95;100.00
16580;BME280;8402;51.466;6.806;2023-12-28T10:42:40;100987.75;;;11.98;100.00
16580;BME280;8402;51.466;6.806;2023-12-28T10:45:16;100987.91;;;12.01;100.00
16580;BME280;8402;51.466;6.806;2023-12-28T10:48:04;100985.03;;;12.06;100.00
16580;BME280;8402;51.466;6.806;2023-12-28T10:50:38;100973.53;;;12.09;100.00
16580;BME280;8402;51.466;6.806;2023-12-28T10:53:25;100977.53;;;12.12;100.00
16580;BME280;8402;51.466;6.806;2023-12-28T10:56:05;100977.19;;;12.13;100.00
16580;BME280;8402;51.466;6.806;2023-12-28T10:58:45;100983.13;;;12.16;100.00
16580;BME280;8402;51.466;6.806;2023-12-28T11:01:24;100978.16;;;12.18;100.00
16580;BME280;8402;51.466;6.806;2023-12-28T11:04:03;100979.28;;;12.17;100.00
16580;BME280;8402;51.466;6.806;2023-12-28T11:06:38;100975.13;;;12.19;100.00
16580;BME280;8402;51.466;6.806;2023-12-28T11:09:10;100980.41;;;12.24;100.00
16580;BME280;8402;51.466;6.806;2023-12-28T11:11:43;100976.56;;;12.25;100.00
16580;BME280;8402;51.466;6.806;2023-12-28T11:14:14;100978.81;;;12.23;100.00
16580;BME280;8402;51.466;6.806;2023-12-28T11:16:52;100985.88;;;12.24;100.00
16580;BME280;8402;51.466;6.806;2023-12-28T11:19:23;100980.41;;;12.24;100.00
16580;BME280;8402;51.466;6.806;2023-12-28T11:21:53;100967.94;;;12.23;100.00
16580;BME280;8402;51.466;6.806;2023-12-28T11:24:24;100969.53;;;12.24;100.00
16580;BME280;8402;51.466;6.806;2023-12-28T11:26:54;100969.69;;;12.28;100.00
16580;BME280;8402;51.466;6.806;2023-12-28T11:29:25;100964.41;;;12.31;100.00
16580;BME280;8402;51.466;6.806;2023-12-28T11:31:58;100959.59;;;12.28;100.00
16580;BME280;8402;51.466;6.806;2023-12-28T11:34:30;100963.28;;;12.32;100.00
16580;BME280;8402;51.466;6.806;2023-12-28T11:37:03;100954.47;;;12.35;100.00
16580;BME280;8402;51.466;6.806;2023-12-28T11:39:38;100959.16;;;12.44;100.00
16580;BME280;8402;51.466;6.806;2023-12-28T11:42:19;100958.50;;;12.38;100.00
16580;BME280;8402;51.466;6.806;2023-12-28T11:44:56;100950.97;;;12.44;100.00
16580;BME280;8402;51.466;6.806;2023-12-28T11:47:29;100946.47;;;12.48;100.00
16580;BME280;8402;51.466;6.806;2023-12-28T11:50:06;100946.81;;;12.46;100.00
16580;BME280;8402;51.466;6.806;2023-12-28T11:52:36;100942.03;;;12.43;100.00
16580;BME280;8402;51.466;6.806;2023-12-28T11:55:09;100946.81;;;12.46;100.00
16580;BME280;8402;51.466;6.806;2023-12-28T11:57:38;100941.84;;;12.48;100.00
16580;BME280;8402;51.466;6.806;2023-12-28T12:00:09;100940.41;;;12.51;100.00
16580;BME280;8402;51.466;6.806;2023-12-28T12:02:43;100937.97;;;12.49;100.00
16580;BME280;8402;51.466;6.806;2023-12-28T12:05:20;100925.19;;;12.50;100.00
16580;BME280;8402;51.466;6.806;2023-12-28T12:07:51;100914.78;;;12.52;100.00
16580;BME280;8402;51.466;6.806;2023-12-28T12:10:21;100921.03;;;12.52;100.00
16580;BME280;8402;51.466;6.806;2023-12-28T12:12:52;100909.81;;;12.54;100.00
16580;BME280;8402;51.466;6.806;2023-12-28T12:15:23;100906.44;;;12.57;100.00
16580;BME280;8402;51.466;6.806;2023-12-28T12:17:56;100907.09;;;12.54;100.00
16580;BME280;8402;51.466;6.806;2023-12-28T12:20:26;100905.50;;;12.53;100.00
16580;BME280;8402;51.466;6.806;2023-12-28T12:23:01;100904.84;;;12.56;100.00
16580;BME280;8402;51.466;6.806;2023-12-28T12:25:32;100887.88;;;12.59;100.00
16580;BME280;8402;51.466;6.806;2023-12-28T12:28:02;100889.47;;;12.60;100.00
16580;BME280;8402;51.466;6.806;2023-12-28T12:30:33;100894.44;;;12.66;100.00
16580;BME280;8402;51.466;6.806;2023-12-28T12:33:06;100901.59;;;12.71;100.00
16580;BME280;8402;51.466;6.806;2023-12-28T12:35:38;100902.44;;;12.72;100.00
16580;BME280;8402;51.466;6.806;2023-12-28T12:38:11;100896.34;;;12.66;100.00
16580;BME280;8402;51.466;6.806;2023-12-28T12:40:41;100888.31;;;12.70;100.00
16580;BME280;8402;51.466;6.806;2023-12-28T12:43:12;100887.97;;;12.71;100.00
16580;BME280;8402;51.466;6.806;2023-12-28T12:45:42;100898.41;;;12.69;100.00
16580;BME280;8402;51.466;6.806;2023-12-28T12:48:17;100899.38;;;12.73;100.00
16580;BME280;8402;51.466;6.806;2023-12-28T12:50:49;100894.75;;;12.65;100.00
16580;BME280;8402;51.466;6.806;2023-12-28T12:53:19;100895.69;;;12.69;100.00
16580;BME280;8402;51.466;6.806;2023-12-28T12:55:54;100887.53;;;12.69;100.00
16580;BME280;8402;51.466;6.806;2023-12-28T12:58:25;100893.63;;;12.66;100.00
16580;BME280;8402;51.466;6.806;2023-12-28T13:01:01;100915.88;;;12.68;100.00
16580;BME280;8402;51.466;6.806;2023-12-28T13:03:35;100902.25;;;12.68;100.00
16580;BME280;8402;51.466;6.806;2023-12-28T13:06:05;100896.16;;;12.71;100.00
16580;BME280;8402;51.466;6.806;2023-12-28T13:08:36;100901.59;;;12.71;100.00
16580;BME280;8402;51.466;6.806;2023-12-28T13:11:06;100899.38;;;12.73;100.00
16580;BME280;8402;51.466;6.806;2023-12-28T13:13:37;100899.72;;;12.72;100.00